createdAt,value
2018-10-01T00:01:06.442Z,100226.51
2018-10-01T00:03:35.474Z,100219.75
2018-10-01T00:06:04.444Z,100221.10
2018-10-01T00:08:33.819Z,100217.23
2018-10-01T00:11:02.762Z,100218.92
2018-10-01T00:13:31.714Z,100221.44
2018-10-01T00:16:00.665Z,100213.35
2018-10-01T00:18:29.694Z,100207.30
2018-10-01T00:21:03.793Z,100200.22
2018-10-01T00:23:32.818Z,100200.89
2018-10-01T00:26:01.804Z,100188.94
2018-10-01T00:28:30.810Z,100183.53
2018-10-01T00:31:00.223Z,100180.66
2018-10-01T00:33:29.196Z,100177.25
2018-10-01T00:35:58.135Z,100173.88
2018-10-01T00:38:27.097Z,100171.84
2018-10-01T00:40:56.088Z,100172.19
2018-10-01T00:43:25.026Z,100167.47
2018-10-01T00:45:53.974Z,100168.48
2018-10-01T00:48:22.943Z,100157.03
2018-10-01T00:50:51.871Z,100156.86
2018-10-01T00:53:20.835Z,100158.20
2018-10-01T00:55:49.753Z,100152.98
2018-10-01T00:58:18.769Z,100142.92
2018-10-01T01:00:47.705Z,100140.42
2018-10-01T01:03:16.627Z,100138.92
2018-10-01T01:05:45.556Z,100131.16
2018-10-01T01:08:14.503Z,100139.91
2018-10-01T01:10:43.542Z,100142.44
2018-10-01T01:13:12.474Z,100141.95
2018-10-01T01:15:41.478Z,100140.09
2018-10-01T01:18:10.430Z,100137.27
2018-10-01T01:20:39.383Z,100129.36
2018-10-01T01:23:08.392Z,100121.85
2018-10-01T01:25:37.365Z,100124.55
2018-10-01T01:28:06.391Z,100112.53
2018-10-01T01:30:35.318Z,100113.31
2018-10-01T01:33:04.313Z,100105.89
2018-10-01T01:35:33.234Z,100106.28
2018-10-01T01:38:02.168Z,100110.93
2018-10-01T01:40:31.138Z,100106.56
2018-10-01T01:43:00.119Z,100109.08
2018-10-01T01:45:29.079Z,100101.50
2018-10-01T01:47:58.011Z,100095.95
2018-10-01T01:50:27.026Z,100097.13
2018-10-01T01:52:56.090Z,100091.89
2018-10-01T01:55:25.062Z,100083.83
2018-10-01T01:57:54.114Z,100087.09
2018-10-01T02:00:23.039Z,100083.22
2018-10-01T02:02:52.000Z,100077.50
2018-10-01T02:05:20.939Z,100075.14
2018-10-01T02:07:49.930Z,100077.98
2018-10-01T02:10:18.861Z,100076.41
2018-10-01T02:12:47.789Z,100073.55
2018-10-01T02:15:16.755Z,100069.90
2018-10-01T02:17:45.715Z,100069.00
2018-10-01T02:20:14.658Z,100068.55
2018-10-01T02:22:43.607Z,100055.43
2018-10-01T02:25:12.652Z,100055.70
2018-10-01T02:27:41.581Z,100052.98
2018-10-01T02:30:10.539Z,100053.50
2018-10-01T02:32:39.478Z,100056.72
2018-10-01T02:35:08.394Z,100055.35
2018-10-01T02:37:37.357Z,100047.63
2018-10-01T02:40:06.358Z,100046.66
2018-10-01T02:42:35.372Z,100050.31
2018-10-01T02:45:04.698Z,100044.57
2018-10-01T02:47:33.752Z,100043.25
2018-10-01T02:50:02.711Z,100039.53
2018-10-01T02:52:36.860Z,100034.14
2018-10-01T02:55:05.943Z,100033.80
2018-10-01T02:57:34.910Z,100031.78
2018-10-01T03:00:03.888Z,100025.70
2018-10-01T03:02:32.814Z,100024.38
2018-10-01T03:05:01.794Z,100027.89
2018-10-01T03:07:30.805Z,100028.38
2018-10-01T03:09:59.773Z,100028.31
2018-10-01T03:12:28.728Z,100024.00
2018-10-01T03:14:57.818Z,100019.33
2018-10-01T03:17:26.754Z,100018.30
2018-10-01T03:19:55.711Z,100017.77
2018-10-01T03:22:24.699Z,100019.66
2018-10-01T03:24:53.635Z,100019.66
2018-10-01T03:27:22.610Z,100016.30
2018-10-01T03:29:51.579Z,100013.66
2018-10-01T03:32:20.512Z,100014.66
2018-10-01T03:34:49.462Z,100011.23
2018-10-01T03:37:18.432Z,100011.71
2018-10-01T03:39:47.438Z,100000.03
2018-10-01T03:42:16.398Z,100006.57
2018-10-01T03:44:45.333Z,99997.98
2018-10-01T03:47:14.302Z,99999.50
2018-10-01T03:49:43.256Z,99991.75
2018-10-01T03:52:12.213Z,99988.99
2018-10-01T03:54:41.163Z,99988.39
2018-10-01T03:57:10.579Z,99990.40
2018-10-01T03:59:39.711Z,99987.76
2018-10-01T04:02:08.743Z,99987.38
2018-10-01T04:04:37.678Z,99988.55
2018-10-01T04:07:06.609Z,99984.27
2018-10-01T04:09:35.563Z,99980.73
2018-10-01T04:12:04.484Z,99980.88
2018-10-01T04:14:33.475Z,99975.84
2018-10-01T04:17:02.566Z,99975.25
2018-10-01T04:19:31.499Z,99967.17
2018-10-01T04:22:00.430Z,99967.80
2018-10-01T04:24:29.361Z,99962.05
2018-10-01T04:26:58.309Z,99961.05
2018-10-01T04:29:27.262Z,99956.56
2018-10-01T04:31:56.286Z,99958.69
2018-10-01T04:34:25.251Z,99947.64
2018-10-01T04:36:54.204Z,99951.95
2018-10-01T04:39:23.134Z,99951.62
2018-10-01T04:41:52.202Z,99952.67
2018-10-01T04:44:21.146Z,99946.33
2018-10-01T04:46:50.167Z,99947.83
2018-10-01T04:49:19.201Z,99946.12
2018-10-01T04:51:48.152Z,99943.09
2018-10-01T04:54:17.230Z,99938.91
2018-10-01T04:56:46.232Z,99940.31
2018-10-01T04:59:15.194Z,99935.55
2018-10-01T05:01:44.174Z,99930.61
2018-10-01T05:04:13.106Z,99929.52
2018-10-01T05:06:42.132Z,99935.06
2018-10-01T05:09:11.547Z,99936.73
2018-10-01T05:11:40.483Z,99931.02
2018-10-01T05:14:09.453Z,99927.30
2018-10-01T05:16:38.410Z,99927.34
2018-10-01T05:19:07.504Z,99919.61
2018-10-01T05:21:36.497Z,99923.63
2018-10-01T05:24:05.497Z,99921.95
2018-10-01T05:26:34.581Z,99922.78
2018-10-01T05:29:03.541Z,99922.61
2018-10-01T05:31:32.484Z,99919.61
2018-10-01T05:34:01.438Z,99926.64
2018-10-01T05:36:30.477Z,99924.22
2018-10-01T05:38:59.443Z,99918.42
2018-10-01T05:41:28.460Z,99922.73
2018-10-01T05:43:57.383Z,99921.34
2018-10-01T05:46:26.343Z,99928.45
2018-10-01T05:48:55.294Z,99925.64
2018-10-01T05:51:24.209Z,99923.64
2018-10-01T05:53:53.188Z,99929.47
2018-10-01T05:56:22.115Z,99921.64
2018-10-01T05:58:51.146Z,99916.21
2018-10-01T06:01:20.086Z,99920.30
2018-10-01T06:03:49.009Z,99915.84
2018-10-01T06:06:17.966Z,99921.12
2018-10-01T06:08:46.883Z,99918.29
2018-10-01T06:11:15.837Z,99925.42
2018-10-01T06:13:44.809Z,99922.03
2018-10-01T06:16:13.805Z,99916.92
2018-10-01T06:18:42.750Z,99920.13
2018-10-01T06:21:11.856Z,99924.13
2018-10-01T06:23:40.829Z,99918.61
2018-10-01T06:26:09.889Z,99924.41
2018-10-01T06:28:38.857Z,99921.37
2018-10-01T06:31:07.828Z,99916.48
2018-10-01T06:33:36.825Z,99922.02
2018-10-01T06:36:05.810Z,99915.14
2018-10-01T06:38:35.092Z,99917.43
2018-10-01T06:41:04.073Z,99910.45
2018-10-01T06:43:33.006Z,99913.87
2018-10-01T06:46:01.980Z,99914.66
2018-10-01T06:48:30.949Z,99922.95
2018-10-01T06:51:00.002Z,99919.09
2018-10-01T06:53:28.972Z,99917.60
2018-10-01T06:55:57.947Z,99917.66
2018-10-01T06:58:26.946Z,99913.29
2018-10-01T07:00:55.887Z,99914.77
2018-10-01T07:03:24.819Z,99917.28
2018-10-01T07:05:53.893Z,99915.27
2018-10-01T07:08:22.807Z,99917.59
2018-10-01T07:10:51.757Z,99913.74
2018-10-01T07:13:20.687Z,99910.20
2018-10-01T07:15:49.667Z,99916.63
2018-10-01T07:18:18.606Z,99914.53
2018-10-01T07:20:47.579Z,99915.74
2018-10-01T07:23:16.710Z,99923.33
2018-10-01T07:25:45.477Z,99918.48
2018-10-01T07:28:14.751Z,99917.22
2018-10-01T07:30:43.795Z,99914.01
2018-10-01T07:33:12.780Z,99911.64
2018-10-01T07:35:41.744Z,99910.98
2018-10-01T07:38:10.763Z,99912.52
2018-10-01T07:40:39.751Z,99907.38
2018-10-01T07:43:08.713Z,99903.45
2018-10-01T07:45:37.703Z,99907.13
2018-10-01T07:48:06.703Z,99903.13
2018-10-01T07:50:35.696Z,99899.48
2018-10-01T07:53:04.634Z,99898.55
2018-10-01T07:55:33.670Z,99900.94
2018-10-01T07:58:02.647Z,99895.68
2018-10-01T08:00:31.693Z,99893.38
2018-10-01T08:03:00.630Z,99890.72
2018-10-01T08:05:29.584Z,99893.59
2018-10-01T08:07:58.624Z,99888.82
2018-10-01T08:10:27.530Z,99886.11
2018-10-01T08:12:56.587Z,99887.84
2018-10-01T08:15:25.585Z,99884.64
2018-10-01T08:17:54.549Z,99880.73
2018-10-01T08:20:23.957Z,99869.55
2018-10-01T08:22:52.887Z,99874.95
2018-10-01T08:25:52.458Z,99872.25
2018-10-01T08:28:21.402Z,99868.30
2018-10-01T08:30:50.496Z,99869.41
2018-10-01T08:33:19.548Z,99861.68
2018-10-01T08:35:48.638Z,99863.36
2018-10-01T08:38:17.694Z,99862.97
2018-10-01T08:40:46.574Z,99864.77
2018-10-01T08:43:15.546Z,99861.63
2018-10-01T08:45:44.613Z,99862.75
2018-10-01T08:48:14.971Z,99859.11
2018-10-01T08:51:15.102Z,99855.03
2018-10-01T08:53:49.262Z,99853.27
2018-10-01T08:56:18.361Z,99843.11
2018-10-01T08:58:47.368Z,99846.30
2018-10-01T09:01:16.425Z,99844.97
2018-10-01T09:03:45.334Z,99844.62
2018-10-01T09:06:14.307Z,99840.95
2018-10-01T09:08:43.266Z,99840.80
2018-10-01T09:11:12.357Z,99841.98
2018-10-01T09:13:41.264Z,99840.93
2018-10-01T09:16:10.222Z,99845.27
2018-10-01T09:18:39.218Z,99837.05
2018-10-01T09:21:08.202Z,99838.41
2018-10-01T09:23:37.192Z,99838.45
2018-10-01T09:26:06.260Z,99839.06
2018-10-01T09:28:35.240Z,99834.31
2018-10-01T09:31:04.196Z,99839.90
2018-10-01T09:33:33.156Z,99838.59
2018-10-01T09:36:02.119Z,99839.66
2018-10-01T09:38:31.118Z,99836.33
2018-10-01T09:41:00.083Z,99831.25
2018-10-01T09:43:29.046Z,99830.20
2018-10-01T09:45:58.080Z,99829.31
2018-10-01T09:48:27.091Z,99827.91
2018-10-01T09:50:56.069Z,99828.55
2018-10-01T09:53:25.057Z,99830.45
2018-10-01T09:55:54.017Z,99828.39
2018-10-01T09:58:23.184Z,99826.78
2018-10-01T10:00:57.169Z,99819.39
2018-10-01T10:03:26.159Z,99821.06
2018-10-01T10:05:55.167Z,99809.53
2018-10-01T10:08:24.147Z,99806.28
2018-10-01T10:10:53.186Z,99805.55
2018-10-01T10:13:22.133Z,99793.22
2018-10-01T10:15:51.095Z,99792.63
2018-10-01T10:18:20.178Z,99790.66
2018-10-01T10:20:49.195Z,99781.56
2018-10-01T10:23:18.141Z,99781.63
2018-10-01T10:25:47.098Z,99780.17
2018-10-01T10:28:16.303Z,99777.44
2018-10-01T10:30:45.276Z,99771.45
2018-10-01T10:33:14.282Z,99769.59
2018-10-01T10:35:43.220Z,99769.17
2018-10-01T10:38:12.206Z,99773.52
2018-10-01T10:40:41.155Z,99762.57
2018-10-01T10:43:10.118Z,99756.45
2018-10-01T10:45:53.666Z,99759.05
2018-10-01T10:48:22.677Z,99751.57
2018-10-01T10:50:51.601Z,99750.80
2018-10-01T10:53:20.561Z,99749.95
2018-10-01T10:55:49.501Z,99744.30
2018-10-01T10:58:18.462Z,99745.75
2018-10-01T11:00:47.567Z,99741.06
2018-10-01T11:03:16.516Z,99744.06
2018-10-01T11:05:45.528Z,99743.28
2018-10-01T11:08:14.611Z,99747.50
2018-10-01T11:10:43.526Z,99741.66
2018-10-01T11:13:12.634Z,99743.84
2018-10-01T11:15:41.595Z,99740.66
2018-10-01T11:18:11.405Z,99740.22
2018-10-01T11:20:40.376Z,99736.59
2018-10-01T11:23:09.514Z,99734.81
2018-10-01T11:25:38.554Z,99733.41
2018-10-01T11:28:07.486Z,99734.11
2018-10-01T11:30:36.468Z,99734.63
2018-10-01T11:33:05.483Z,99734.75
2018-10-01T11:35:34.415Z,99728.91
2018-10-01T11:38:03.402Z,99724.02
2018-10-01T11:40:32.453Z,99725.59
2018-10-01T11:43:01.433Z,99720.25
2018-10-01T11:45:30.463Z,99726.13
2018-10-01T11:47:59.479Z,99724.14
2018-10-01T11:50:28.454Z,99722.08
2018-10-01T11:52:57.422Z,99720.96
2018-10-01T11:55:26.359Z,99719.94
2018-10-01T11:57:55.368Z,99718.11
2018-10-01T12:00:24.424Z,99713.16
2018-10-01T12:02:53.376Z,99715.41
2018-10-01T12:05:22.365Z,99705.60
2018-10-01T12:07:51.356Z,99708.05
2018-10-01T12:10:20.414Z,99700.33
2018-10-01T12:12:49.462Z,99704.70
2018-10-01T12:15:18.595Z,99701.36
2018-10-01T12:17:47.492Z,99703.45
2018-10-01T12:20:16.448Z,99707.41
2018-10-01T12:22:45.410Z,99708.05
2018-10-01T12:25:14.407Z,99702.88
2018-10-01T12:27:43.528Z,99703.52
2018-10-01T12:30:12.491Z,99698.66
2018-10-01T12:32:41.455Z,99699.72
2018-10-01T12:35:10.493Z,99704.28
2018-10-01T12:37:39.557Z,99702.36
2018-10-01T12:40:08.609Z,99698.05
2018-10-01T12:42:37.582Z,99692.84
2018-10-01T12:45:07.726Z,99684.65
2018-10-01T12:47:36.700Z,99687.28
2018-10-01T12:50:05.694Z,99679.66
2018-10-01T12:52:34.773Z,99680.04
2018-10-01T12:55:03.746Z,99681.61
2018-10-01T12:57:32.767Z,99678.41
2018-10-01T13:00:01.855Z,99670.88
2018-10-01T13:02:30.779Z,99665.68
2018-10-01T13:04:59.816Z,99671.39
2018-10-01T13:07:28.766Z,99668.13
2018-10-01T13:09:57.785Z,99674.41
2018-10-01T13:12:26.747Z,99666.77
2018-10-01T13:14:55.697Z,99676.96
2018-10-01T13:17:24.658Z,99674.03
2018-10-01T13:19:53.619Z,99672.36
2018-10-01T13:22:22.631Z,99669.66
2018-10-01T13:24:51.726Z,99664.91
2018-10-01T13:27:20.865Z,99664.27
2018-10-01T13:29:50.756Z,99662.92
2018-10-01T13:32:21.122Z,99662.98
2018-10-01T13:34:50.103Z,99663.24
2018-10-01T13:37:19.091Z,99662.61
2018-10-01T13:39:48.109Z,99665.25
2018-10-01T13:42:18.046Z,99665.25
2018-10-01T13:44:46.863Z,99665.91
2018-10-01T13:47:15.842Z,99666.02
2018-10-01T13:49:44.801Z,99664.67
2018-10-01T13:52:13.792Z,99655.55
2018-10-01T13:54:42.874Z,99657.05
2018-10-01T13:57:11.798Z,99659.59
2018-10-01T13:59:40.842Z,99659.85
2018-10-01T14:02:10.003Z,99662.77
2018-10-01T14:04:38.939Z,99657.64
2018-10-01T14:07:07.979Z,99661.23
2018-10-01T14:09:36.982Z,99658.89
2018-10-01T14:12:05.962Z,99658.70
2018-10-01T14:14:34.966Z,99657.16
2018-10-01T14:17:03.931Z,99656.31
2018-10-01T14:19:33.029Z,99653.88
2018-10-01T14:22:01.979Z,99662.25
2018-10-01T14:24:30.938Z,99667.14
2018-10-01T14:26:59.939Z,99665.14
2018-10-01T14:29:28.932Z,99660.13
2018-10-01T14:31:57.918Z,99665.68
2018-10-01T14:34:26.897Z,99662.05
2018-10-01T14:36:55.918Z,99656.33
2018-10-01T14:39:24.872Z,99658.00
2018-10-01T14:41:53.851Z,99657.55
2018-10-01T14:44:22.975Z,99656.94
2018-10-01T14:46:51.976Z,99645.09
2018-10-01T14:49:20.983Z,99647.21
2018-10-01T14:51:50.000Z,99650.78
2018-10-01T14:54:19.070Z,99646.22
2018-10-01T14:56:48.002Z,99648.09
2018-10-01T14:59:16.991Z,99646.55
2018-10-01T15:01:46.000Z,99648.73
2018-10-01T15:04:14.965Z,99644.69
2018-10-01T15:06:43.938Z,99646.09
2018-10-01T15:12:12.670Z,99644.52
2018-10-01T15:14:41.563Z,99643.61
2018-10-01T15:17:10.634Z,99642.58
2018-10-01T15:19:39.600Z,99638.53
2018-10-01T15:22:08.589Z,99639.18
2018-10-01T15:24:37.646Z,99635.14
2018-10-01T15:27:06.560Z,99649.91
2018-10-01T15:29:35.541Z,99646.24
2018-10-01T15:32:04.532Z,99634.34
2018-10-01T15:34:33.576Z,99642.52
2018-10-01T15:37:02.724Z,99645.54
2018-10-01T15:39:31.701Z,99638.21
2018-10-01T15:42:00.751Z,99640.91
2018-10-01T15:44:29.698Z,99645.59
2018-10-01T15:46:58.732Z,99645.28
2018-10-01T15:49:27.702Z,99641.88
2018-10-01T15:51:56.750Z,99641.94
2018-10-01T15:54:25.753Z,99646.39
2018-10-01T15:56:54.752Z,99644.59
2018-10-01T15:59:23.974Z,99651.46
2018-10-01T16:01:52.990Z,99654.54
2018-10-01T16:04:22.095Z,99658.03
2018-10-01T16:06:51.071Z,99651.28
2018-10-01T16:09:20.111Z,99656.35
2018-10-01T16:11:49.194Z,99661.75
2018-10-01T16:14:18.156Z,99663.09
2018-10-01T16:16:47.194Z,99664.77
2018-10-01T16:19:16.270Z,99659.95
2018-10-01T16:21:45.492Z,99667.01
2018-10-01T16:24:14.482Z,99658.41
2018-10-01T16:26:43.600Z,99664.96
2018-10-01T16:29:12.670Z,99661.38
2018-10-01T16:31:44.202Z,99659.00
2018-10-01T16:34:13.300Z,99661.11
2018-10-01T16:36:42.338Z,99661.94
2018-10-01T16:39:12.770Z,99664.58
2018-10-01T16:41:41.794Z,99666.25
2018-10-01T16:44:10.770Z,99667.92
2018-10-01T16:46:39.891Z,99669.27
2018-10-01T16:49:08.977Z,99667.92
2018-10-01T16:51:37.968Z,99676.39
2018-10-01T16:54:06.961Z,99674.72
2018-10-01T16:56:35.939Z,99680.25
2018-10-01T16:59:04.924Z,99677.23
2018-10-01T17:01:35.834Z,99680.67
2018-10-01T17:04:04.850Z,99681.59
2018-10-01T17:06:34.422Z,99681.78
2018-10-01T17:09:05.198Z,99675.83
2018-10-01T17:11:34.158Z,99675.69
2018-10-01T17:14:03.188Z,99677.79
2018-10-01T17:16:32.299Z,99674.77
2018-10-01T17:19:01.747Z,99677.41
2018-10-01T17:21:31.387Z,99672.67
2018-10-01T17:24:00.634Z,99680.67
2018-10-01T17:26:29.678Z,99681.32
2018-10-01T17:28:59.569Z,99677.28
2018-10-01T17:31:29.465Z,99673.23
2018-10-01T17:33:58.409Z,99676.90
2018-10-01T17:36:27.458Z,99678.81
2018-10-01T17:38:56.854Z,99675.09
2018-10-01T17:41:26.257Z,99679.00
2018-10-01T17:43:55.872Z,99683.63
2018-10-01T17:46:25.537Z,99685.08
2018-10-01T17:48:56.240Z,99690.19
2018-10-01T17:51:26.930Z,99690.23
2018-10-01T17:53:55.918Z,99689.91
2018-10-01T17:56:24.897Z,99691.27
2018-10-01T17:58:54.101Z,99693.26
2018-10-01T18:01:23.056Z,99686.25
2018-10-01T18:03:52.022Z,99687.55
2018-10-01T18:06:21.116Z,99689.22
2018-10-01T18:08:50.062Z,99689.22
2018-10-01T18:11:19.065Z,99688.52
2018-10-01T18:13:48.054Z,99689.53
2018-10-01T18:16:17.158Z,99680.75
2018-10-01T18:18:46.108Z,99685.41
2018-10-01T18:21:15.097Z,99684.38
2018-10-01T18:23:44.095Z,99686.38
2018-10-01T18:26:13.092Z,99679.77
2018-10-01T18:28:42.146Z,99681.95
2018-10-01T18:31:11.131Z,99681.63
2018-10-01T18:33:40.155Z,99683.91
2018-10-01T18:36:09.143Z,99691.06
2018-10-01T18:38:38.169Z,99694.70
2018-10-01T18:41:07.831Z,99698.75
2018-10-01T18:43:36.911Z,99707.48
2018-10-01T18:46:05.880Z,99710.83
2018-10-01T18:48:34.829Z,99715.06
2018-10-01T18:51:03.873Z,99721.30
2018-10-01T18:53:32.843Z,99721.30
2018-10-01T18:56:01.816Z,99716.92
2018-10-01T18:58:30.914Z,99725.62
2018-10-01T19:00:59.884Z,99721.67
2018-10-01T19:03:28.908Z,99720.32
2018-10-01T19:05:57.915Z,99717.52
2018-10-01T19:08:26.950Z,99726.78
2018-10-01T19:10:55.910Z,99720.41
2018-10-01T19:13:24.901Z,99716.04
2018-10-01T19:15:53.915Z,99720.98
2018-10-01T19:18:22.900Z,99722.60
2018-10-01T19:20:52.001Z,99717.20
2018-10-01T19:23:20.960Z,99719.52
2018-10-01T19:25:50.031Z,99720.60
2018-10-01T19:28:18.986Z,99724.52
2018-10-01T19:30:48.247Z,99726.97
2018-10-01T19:33:17.323Z,99722.27
2018-10-01T19:35:46.322Z,99723.16
2018-10-01T19:38:15.789Z,99725.43
2018-10-01T19:40:44.755Z,99730.69
2018-10-01T19:43:13.774Z,99728.31
2018-10-01T19:45:42.784Z,99731.47
2018-10-01T19:48:11.751Z,99724.41
2018-10-01T19:50:40.743Z,99736.27
2018-10-01T19:53:09.714Z,99741.33
2018-10-01T19:55:38.742Z,99740.31
2018-10-01T19:58:08.819Z,99741.66
2018-10-01T20:00:38.123Z,99737.61
2018-10-01T20:03:07.178Z,99743.41
2018-10-01T20:05:36.152Z,99751.88
2018-10-01T20:08:05.258Z,99747.23
2018-10-01T20:10:34.240Z,99745.70
2018-10-01T20:13:03.415Z,99747.00
2018-10-01T20:15:32.439Z,99741.34
2018-10-01T20:18:01.736Z,99745.20
2018-10-01T20:20:30.725Z,99748.54
2018-10-01T20:23:00.163Z,99755.42
2018-10-01T20:25:29.149Z,99744.81
2018-10-01T20:27:58.247Z,99745.89
2018-10-01T20:30:27.228Z,99750.34
2018-10-01T20:32:56.280Z,99751.42
2018-10-01T20:35:25.439Z,99750.39
2018-10-01T20:37:54.306Z,99751.74
2018-10-01T20:40:23.354Z,99752.06
2018-10-01T20:42:52.347Z,99751.55
2018-10-01T20:45:21.297Z,99756.95
2018-10-01T20:47:50.303Z,99755.84
2018-10-01T20:50:19.467Z,99758.53
2018-10-01T20:52:48.551Z,99757.27
2018-10-01T20:55:17.462Z,99754.20
2018-10-01T20:57:46.450Z,99749.09
2018-10-01T21:00:15.538Z,99750.44
2018-10-01T21:02:44.486Z,99744.16
2018-10-01T21:05:13.505Z,99749.42
2018-10-01T21:07:42.533Z,99741.48
2018-10-01T21:10:11.652Z,99739.02
2018-10-01T21:12:40.680Z,99749.80
2018-10-01T21:15:10.142Z,99746.08
2018-10-01T21:17:39.195Z,99747.38
2018-10-01T21:20:08.286Z,99746.49
2018-10-01T21:22:37.338Z,99748.08
2018-10-01T21:25:06.700Z,99747.11
2018-10-01T21:27:35.851Z,99757.14
2018-10-01T21:30:05.330Z,99753.16
2018-10-01T21:32:34.359Z,99751.56
2018-10-01T21:35:03.450Z,99747.24
2018-10-01T21:37:32.525Z,99751.16
2018-10-01T21:40:05.975Z,99751.56
2018-10-01T21:42:35.740Z,99759.56
2018-10-01T21:45:05.265Z,99756.36
2018-10-01T21:47:34.652Z,99761.84
2018-10-01T21:50:03.688Z,99758.95
2018-10-01T21:52:32.670Z,99759.38
2018-10-01T21:55:01.728Z,99759.24
2018-10-01T21:57:30.723Z,99758.95
2018-10-01T21:59:59.741Z,99755.34
2018-10-01T22:02:28.734Z,99747.38
2018-10-01T22:04:57.691Z,99752.91
2018-10-01T22:07:27.735Z,99750.31
2018-10-01T22:09:56.719Z,99756.63
2018-10-01T22:12:25.665Z,99763.42
2018-10-01T22:14:54.638Z,99756.73
2018-10-01T22:17:23.606Z,99761.11
2018-10-01T22:19:52.581Z,99749.94
2018-10-01T22:22:21.577Z,99750.13
2018-10-01T22:24:50.612Z,99744.73
2018-10-01T22:27:19.571Z,99751.94
2018-10-01T22:29:48.547Z,99750.31
2018-10-01T22:32:17.853Z,99744.16
2018-10-01T22:34:46.863Z,99752.64
2018-10-01T22:37:15.855Z,99754.55
2018-10-01T22:39:44.850Z,99753.79
2018-10-01T22:42:13.869Z,99750.68
2018-10-01T22:44:42.876Z,99749.98
2018-10-01T22:47:11.842Z,99747.60
2018-10-01T22:49:40.812Z,99749.47
2018-10-01T22:52:09.842Z,99753.38
2018-10-01T22:54:38.906Z,99754.44
2018-10-01T22:57:07.850Z,99753.00
2018-10-01T22:59:36.835Z,99756.80
2018-10-01T23:02:05.844Z,99758.08
2018-10-01T23:04:34.818Z,99752.35
2018-10-01T23:07:03.814Z,99748.63
2018-10-01T23:09:32.815Z,99750.26
2018-10-01T23:12:01.935Z,99755.38
2018-10-01T23:14:30.956Z,99747.75
2018-10-01T23:16:59.943Z,99753.14
2018-10-01T23:19:28.956Z,99753.79
2018-10-01T23:21:57.959Z,99758.77
2018-10-01T23:24:26.930Z,99755.64
2018-10-01T23:26:55.961Z,99752.53
2018-10-01T23:29:25.354Z,99755.17
2018-10-01T23:31:54.486Z,99759.92
2018-10-01T23:34:23.635Z,99756.65
2018-10-01T23:36:52.695Z,99762.47
2018-10-01T23:39:21.708Z,99770.38
2018-10-01T23:41:51.293Z,99765.11
2018-10-01T23:44:20.395Z,99770.32
2018-10-01T23:46:49.586Z,99762.41
2018-10-01T23:49:19.187Z,99758.50
2018-10-01T23:51:48.247Z,99764.09
2018-10-01T23:54:17.268Z,99759.84
2018-10-01T23:56:46.270Z,99751.48
2018-10-01T23:59:15.302Z,99758.10
